< Cyclone 196706 1967 Season Cyclone 196708 >
Cyclone 196707 (DINAH)
General InformationTrack Information on Google Maps || ResourceGoogle EarthGE AnimationAtom FeedGeoJSON
Detalied Best Track (Time Zone = UTC)
Year Month Day Hour Lat. Long. Pressure (hPa) Wind (kt) Class Image Chart
1967 1 22 23 -12.6 163.8 1001 0 0 -- --
1967 1 23 11 -13.0 162.2 999 0 0 -- --
1967 1 23 23 -13.7 161.0 998 0 0 -- --
1967 1 24 11 -14.4 159.6 995 0 0 -- --
1967 1 24 23 -15.4 158.1 991 0 0 -- --
1967 1 25 11 -16.2 156.9 984 0 0 -- --
1967 1 25 23 -17.1 155.8 976 0 0 -- --
1967 1 26 11 -18.1 154.8 972 0 0 -- --
1967 1 26 23 -19.0 154.0 968 0 0 -- --
1967 1 27 11 -19.9 153.3 962 0 0 -- --
1967 1 27 23 -21.1 153.0 954 0 0 -- --
1967 1 28 11 -22.0 152.7 946 0 0 -- --
1967 1 28 23 -23.2 152.8 945 0 0 -- --
1967 1 29 07 -24.6 153.2 945 0 0 -- --
1967 1 29 11 -25.2 153.5 946 0 0 -- --
1967 1 29 17 -26.1 154.3 950 0 0 -- --
1967 1 29 23 -27.0 155.1 954 0 0 -- --
1967 1 30 11 -29.4 157.7 962 0 0 -- --
1967 1 30 14 -30.1 158.3 964 0 0 -- --
1967 1 30 23 -31.1 158.7 970 0 0 -- --
1967 1 31 11 -33.2 160.0 978 0 0 -- --
1967 1 31 23 -35.1 161.5 986 0 0 -- --
< Cyclone 196706 1967 Season Cyclone 196708 >

Help